We Are Winnipeg.

Screenshot by Cody Cameron

Come explore the heart of Canada. 


  Upcoming Events

Stay tuned here for upcoming events!

  Top Controllers this Month

Karl Sawatzky 1272864
10:48

Kien Houk 862352
09:40

Tavis Harrison 1444863
06:43

Zachary Collison 1431902
06:23

Nate Power 1233493
05:54

  Online Controllers

WPG_CTR on 124.000

CYWG_TWR on 118.300

  Weather

CYWG - Winnipeg / James Armstrong Richardson International Airport   VFR
CYWG 051600Z 16006KT 15SM FEW025 FEW230 M15/M17 A3004 RMK SC1CI1 SC TR CI TR SLP198

CYXE - Saskatoon John G. Diefenbaker International Airport   VFR
CYXE 051600Z 18007KT 10SM FEW010 FEW220 M09/M10 A2968 RMK SF1CI1 SF TR CI TR SLP086

CYQT - Thunder Bay Airport   MVFR
CYQT 051600Z 35004KT 330V040 8SM -SN OVC021 M12/M17 A2996 RMK SC8 SLP163

CYQR - Regina International Airport   VFR
CYQR 051600Z 13010KT 15SM FEW260 M10/M11 A2979 RMK CI2 SLP129